virtualACA

Welcome To Vancouver International Airport CYVR

Hub Roster

Pilot Domicile Rank
Brian Kozushka - ACA1102CanadaChief Pilot
Jean-Michel Lazare - ACA2310FranceChief Pilot
Jose Restrepo - ACA3112ColombiaFirst Officer
Chris Woolbright - ACA3136United StatesSecond Officer
Marcel De Boer - ACA3175NetherlandsSecond Officer
Jardel Lopes - ACA3179BrazilFirst Officer
Robert Zolliecoffer - ACA3242United StatesNew Hire
Julien Chabbey - ACA3244SwitzerlandNew Hire

Current Vatsim Weather


CYVR 161100Z 10005KT 20SM FEW047 BKN067 BKN120 OVC230 01/00 A2976 RMK SC2AC4AC1CS1 SLP078
Vancouver International Airport